sensor_id;sensor_type;location;lat;lon;timestamp;temperature;humidity
19906;DHT22;10115;50.906;4.438;2023-09-19T00:00:23;15.40;99.90
19906;DHT22;10115;50.906;4.438;2023-09-19T00:02:54;15.40;99.90
19906;DHT22;10115;50.906;4.438;2023-09-19T00:05:20;15.40;99.90
19906;DHT22;10115;50.906;4.438;2023-09-19T00:07:58;15.40;99.90
19906;DHT22;10115;50.906;4.438;2023-09-19T00:10:25;15.30;99.90
19906;DHT22;10115;50.906;4.438;2023-09-19T00:12:55;15.30;99.90
19906;DHT22;10115;50.906;4.438;2023-09-19T00:15:26;15.30;99.90
19906;DHT22;10115;50.906;4.438;2023-09-19T00:17:55;15.30;99.90
19906;DHT22;10115;50.906;4.438;2023-09-19T00:20:22;15.30;99.90
19906;DHT22;10115;50.906;4.438;2023-09-19T00:22:51;15.30;99.90
19906;DHT22;10115;50.906;4.438;2023-09-19T00:25:19;15.40;99.90
19906;DHT22;10115;50.906;4.438;2023-09-19T00:27:46;15.30;99.90
19906;DHT22;10115;50.906;4.438;2023-09-19T00:30:15;15.30;99.90
19906;DHT22;10115;50.906;4.438;2023-09-19T00:32:47;15.30;99.90
19906;DHT22;10115;50.906;4.438;2023-09-19T00:35:14;15.30;99.90
19906;DHT22;10115;50.906;4.438;2023-09-19T00:37:42;15.30;99.90
19906;DHT22;10115;50.906;4.438;2023-09-19T00:40:09;15.20;99.90
19906;DHT22;10115;50.906;4.438;2023-09-19T00:42:39;15.20;99.90
19906;DHT22;10115;50.906;4.438;2023-09-19T00:45:07;15.20;99.90
19906;DHT22;10115;50.906;4.438;2023-09-19T00:47:35;15.20;99.90
19906;DHT22;10115;50.906;4.438;2023-09-19T00:50:02;15.20;99.90
19906;DHT22;10115;50.906;4.438;2023-09-19T00:52:28;15.20;99.90
19906;DHT22;10115;50.906;4.438;2023-09-19T00:54:54;15.20;99.90
19906;DHT22;10115;50.906;4.438;2023-09-19T00:57:20;15.10;99.90
19906;DHT22;10115;50.906;4.438;2023-09-19T00:59:48;15.10;99.90
19906;DHT22;10115;50.906;4.438;2023-09-19T01:02:16;15.20;99.90
19906;DHT22;10115;50.906;4.438;2023-09-19T01:04:42;15.20;99.90
19906;DHT22;10115;50.906;4.438;2023-09-19T01:07:08;15.20;99.90
19906;DHT22;10115;50.906;4.438;2023-09-19T01:09:35;15.10;99.90
19906;DHT22;10115;50.906;4.438;2023-09-19T01:12:03;15.10;99.90
19906;DHT22;10115;50.906;4.438;2023-09-19T01:17:53;15.10;99.90
19906;DHT22;10115;50.906;4.438;2023-09-19T01:21:15;15.10;99.90
19906;DHT22;10115;50.906;4.438;2023-09-19T01:31:58;15.00;99.90
19906;DHT22;10115;50.906;4.438;2023-09-19T01:34:26;15.00;99.90
19906;DHT22;10115;50.906;4.438;2023-09-19T01:36:52;15.00;99.90
19906;DHT22;10115;50.906;4.438;2023-09-19T01:39:18;15.10;99.90
19906;DHT22;10115;50.906;4.438;2023-09-19T01:44:49;15.00;99.90
19906;DHT22;10115;50.906;4.438;2023-09-19T01:47:21;14.90;99.90
19906;DHT22;10115;50.906;4.438;2023-09-19T01:52:38;15.00;99.90
19906;DHT22;10115;50.906;4.438;2023-09-19T01:55:10;14.90;99.90
19906;DHT22;10115;50.906;4.438;2023-09-19T01:57:52;15.00;99.90
19906;DHT22;10115;50.906;4.438;2023-09-19T02:00:20;14.90;99.90
19906;DHT22;10115;50.906;4.438;2023-09-19T02:02:47;15.00;99.90
19906;DHT22;10115;50.906;4.438;2023-09-19T02:05:22;15.00;99.90
19906;DHT22;10115;50.906;4.438;2023-09-19T02:07:49;15.00;99.90
19906;DHT22;10115;50.906;4.438;2023-09-19T02:10:15;15.00;99.90
19906;DHT22;10115;50.906;4.438;2023-09-19T02:12:42;15.10;99.90
19906;DHT22;10115;50.906;4.438;2023-09-19T02:15:08;15.00;99.90
19906;DHT22;10115;50.906;4.438;2023-09-19T02:17:34;15.00;99.90
19906;DHT22;10115;50.906;4.438;2023-09-19T02:20:00;15.10;99.90
19906;DHT22;10115;50.906;4.438;2023-09-19T02:22:26;15.10;99.90
19906;DHT22;10115;50.906;4.438;2023-09-19T02:24:53;15.10;99.90
19906;DHT22;10115;50.906;4.438;2023-09-19T02:27:19;15.10;99.90
19906;DHT22;10115;50.906;4.438;2023-09-19T02:29:45;15.10;99.90
19906;DHT22;10115;50.906;4.438;2023-09-19T02:32:10;15.10;99.90
19906;DHT22;10115;50.906;4.438;2023-09-19T02:34:36;15.10;99.90
19906;DHT22;10115;50.906;4.438;2023-09-19T02:37:03;15.10;99.90
19906;DHT22;10115;50.906;4.438;2023-09-19T02:39:31;15.10;99.90
19906;DHT22;10115;50.906;4.438;2023-09-19T02:41:56;15.10;99.90
19906;DHT22;10115;50.906;4.438;2023-09-19T02:44:22;15.10;99.90
19906;DHT22;10115;50.906;4.438;2023-09-19T02:46:49;15.10;99.90
19906;DHT22;10115;50.906;4.438;2023-09-19T02:49:15;15.10;99.90
19906;DHT22;10115;50.906;4.438;2023-09-19T02:51:41;15.10;99.90
19906;DHT22;10115;50.906;4.438;2023-09-19T02:54:07;15.10;99.90
19906;DHT22;10115;50.906;4.438;2023-09-19T02:56:33;15.00;99.90
19906;DHT22;10115;50.906;4.438;2023-09-19T02:58:58;15.00;99.90
19906;DHT22;10115;50.906;4.438;2023-09-19T03:01:26;15.00;99.90
19906;DHT22;10115;50.906;4.438;2023-09-19T03:03:52;15.00;99.90
19906;DHT22;10115;50.906;4.438;2023-09-19T03:06:19;14.90;99.90
19906;DHT22;10115;50.906;4.438;2023-09-19T03:08:46;14.90;99.90
19906;DHT22;10115;50.906;4.438;2023-09-19T03:11:12;14.90;99.90
19906;DHT22;10115;50.906;4.438;2023-09-19T03:13:40;14.90;99.90
19906;DHT22;10115;50.906;4.438;2023-09-19T03:16:08;14.90;99.90
19906;DHT22;10115;50.906;4.438;2023-09-19T03:18:36;14.80;99.90
19906;DHT22;10115;50.906;4.438;2023-09-19T03:21:02;14.80;99.90
19906;DHT22;10115;50.906;4.438;2023-09-19T03:23:29;14.90;99.90
19906;DHT22;10115;50.906;4.438;2023-09-19T03:25:55;14.90;99.90
19906;DHT22;10115;50.906;4.438;2023-09-19T03:28:22;14.90;99.90
19906;DHT22;10115;50.906;4.438;2023-09-19T03:31:05;14.90;99.90
19906;DHT22;10115;50.906;4.438;2023-09-19T03:33:31;14.80;99.90
19906;DHT22;10115;50.906;4.438;2023-09-19T03:35:58;14.80;99.90
19906;DHT22;10115;50.906;4.438;2023-09-19T03:38:25;14.80;99.90
19906;DHT22;10115;50.906;4.438;2023-09-19T03:40:51;14.70;99.90
19906;DHT22;10115;50.906;4.438;2023-09-19T03:43:17;14.70;99.90
19906;DHT22;10115;50.906;4.438;2023-09-19T03:45:43;14.60;99.90
19906;DHT22;10115;50.906;4.438;2023-09-19T03:48:12;14.50;99.90
19906;DHT22;10115;50.906;4.438;2023-09-19T03:50:38;14.50;99.90
19906;DHT22;10115;50.906;4.438;2023-09-19T03:53:04;14.50;99.90
19906;DHT22;10115;50.906;4.438;2023-09-19T03:55:30;14.50;99.90
19906;DHT22;10115;50.906;4.438;2023-09-19T03:57:56;14.50;99.90
19906;DHT22;10115;50.906;4.438;2023-09-19T04:00:22;14.60;99.90
19906;DHT22;10115;50.906;4.438;2023-09-19T04:02:51;14.60;99.90
19906;DHT22;10115;50.906;4.438;2023-09-19T04:05:17;14.60;99.90
19906;DHT22;10115;50.906;4.438;2023-09-19T04:07:43;14.60;99.90
19906;DHT22;10115;50.906;4.438;2023-09-19T04:10:09;14.60;99.90
19906;DHT22;10115;50.906;4.438;2023-09-19T04:12:37;14.50;99.90
19906;DHT22;10115;50.906;4.438;2023-09-19T04:15:05;14.60;99.90
19906;DHT22;10115;50.906;4.438;2023-09-19T04:17:31;14.50;99.90
19906;DHT22;10115;50.906;4.438;2023-09-19T04:19:58;14.50;99.90
19906;DHT22;10115;50.906;4.438;2023-09-19T04:22:24;14.60;99.90
19906;DHT22;10115;50.906;4.438;2023-09-19T04:24:50;14.50;99.90
19906;DHT22;10115;50.906;4.438;2023-09-19T04:27:16;14.50;99.90
19906;DHT22;10115;50.906;4.438;2023-09-19T04:29:42;14.50;99.90
19906;DHT22;10115;50.906;4.438;2023-09-19T04:32:08;14.50;99.90
19906;DHT22;10115;50.906;4.438;2023-09-19T04:34:35;14.50;99.90
19906;DHT22;10115;50.906;4.438;2023-09-19T04:37:00;14.50;99.90
19906;DHT22;10115;50.906;4.438;2023-09-19T04:39:27;14.50;99.90
19906;DHT22;10115;50.906;4.438;2023-09-19T04:41:54;14.50;99.90
19906;DHT22;10115;50.906;4.438;2023-09-19T04:44:20;14.50;99.90
19906;DHT22;10115;50.906;4.438;2023-09-19T04:46:46;14.50;99.90
19906;DHT22;10115;50.906;4.438;2023-09-19T04:49:12;14.40;99.90
19906;DHT22;10115;50.906;4.438;2023-09-19T04:51:38;14.40;99.90
19906;DHT22;10115;50.906;4.438;2023-09-19T04:54:05;14.40;99.90
19906;DHT22;10115;50.906;4.438;2023-09-19T04:56:31;14.40;99.90
19906;DHT22;10115;50.906;4.438;2023-09-19T04:58:58;14.50;99.90
19906;DHT22;10115;50.906;4.438;2023-09-19T05:01:24;14.40;99.90
19906;DHT22;10115;50.906;4.438;2023-09-19T05:03:50;14.40;99.90
19906;DHT22;10115;50.906;4.438;2023-09-19T05:06:22;14.40;99.90
19906;DHT22;10115;50.906;4.438;2023-09-19T05:08:49;14.40;99.90
19906;DHT22;10115;50.906;4.438;2023-09-19T05:11:21;14.40;99.90
19906;DHT22;10115;50.906;4.438;2023-09-19T05:13:48;14.40;99.90
19906;DHT22;10115;50.906;4.438;2023-09-19T05:16:16;14.40;99.90
19906;DHT22;10115;50.906;4.438;2023-09-19T05:18:41;14.40;99.90
19906;DHT22;10115;50.906;4.438;2023-09-19T05:21:07;14.30;99.90
19906;DHT22;10115;50.906;4.438;2023-09-19T05:23:33;14.40;99.90
19906;DHT22;10115;50.906;4.438;2023-09-19T05:25:59;14.40;99.90
19906;DHT22;10115;50.906;4.438;2023-09-19T05:28:26;14.40;99.90
19906;DHT22;10115;50.906;4.438;2023-09-19T05:30:52;14.50;99.90
19906;DHT22;10115;50.906;4.438;2023-09-19T05:33:19;14.40;99.90
19906;DHT22;10115;50.906;4.438;2023-09-19T05:35:45;14.40;99.90
19906;DHT22;10115;50.906;4.438;2023-09-19T05:38:12;14.40;99.90
19906;DHT22;10115;50.906;4.438;2023-09-19T05:40:39;14.50;99.90
19906;DHT22;10115;50.906;4.438;2023-09-19T05:43:08;14.50;99.90
19906;DHT22;10115;50.906;4.438;2023-09-19T05:45:33;14.40;99.90
19906;DHT22;10115;50.906;4.438;2023-09-19T05:48:11;14.40;99.90
19906;DHT22;10115;50.906;4.438;2023-09-19T05:50:40;14.50;99.90
19906;DHT22;10115;50.906;4.438;2023-09-19T05:53:06;14.50;99.90
19906;DHT22;10115;50.906;4.438;2023-09-19T05:55:32;14.50;99.90
19906;DHT22;10115;50.906;4.438;2023-09-19T05:57:58;14.50;99.90
19906;DHT22;10115;50.906;4.438;2023-09-19T06:00:24;14.50;99.90
19906;DHT22;10115;50.906;4.438;2023-09-19T06:02:56;14.50;99.90
19906;DHT22;10115;50.906;4.438;2023-09-19T06:05:24;14.50;99.90
19906;DHT22;10115;50.906;4.438;2023-09-19T06:07:50;14.60;99.90
19906;DHT22;10115;50.906;4.438;2023-09-19T06:10:17;14.60;99.90
19906;DHT22;10115;50.906;4.438;2023-09-19T06:12:43;14.60;99.90
19906;DHT22;10115;50.906;4.438;2023-09-19T06:15:10;14.60;99.90
19906;DHT22;10115;50.906;4.438;2023-09-19T06:17:41;14.60;99.90
19906;DHT22;10115;50.906;4.438;2023-09-19T06:20:07;14.60;99.90
19906;DHT22;10115;50.906;4.438;2023-09-19T06:22:42;14.70;99.90
19906;DHT22;10115;50.906;4.438;2023-09-19T06:25:09;14.80;99.90
19906;DHT22;10115;50.906;4.438;2023-09-19T06:27:40;14.70;99.90
19906;DHT22;10115;50.906;4.438;2023-09-19T06:30:10;14.80;99.90
19906;DHT22;10115;50.906;4.438;2023-09-19T06:32:40;14.70;99.90
19906;DHT22;10115;50.906;4.438;2023-09-19T06:35:12;14.80;99.90
19906;DHT22;10115;50.906;4.438;2023-09-19T06:37:40;14.80;99.90
19906;DHT22;10115;50.906;4.438;2023-09-19T06:40:10;14.80;99.90
19906;DHT22;10115;50.906;4.438;2023-09-19T06:43:06;14.90;99.90
19906;DHT22;10115;50.906;4.438;2023-09-19T06:45:32;14.90;99.90
19906;DHT22;10115;50.906;4.438;2023-09-19T06:47:58;14.90;99.90
19906;DHT22;10115;50.906;4.438;2023-09-19T06:50:26;14.90;99.90
19906;DHT22;10115;50.906;4.438;2023-09-19T06:52:54;14.90;99.90
19906;DHT22;10115;50.906;4.438;2023-09-19T06:55:22;14.90;99.90
19906;DHT22;10115;50.906;4.438;2023-09-19T06:57:53;14.90;99.90
19906;DHT22;10115;50.906;4.438;2023-09-19T07:00:22;14.90;99.90
19906;DHT22;10115;50.906;4.438;2023-09-19T07:03:04;14.90;99.90
19906;DHT22;10115;50.906;4.438;2023-09-19T07:05:34;14.80;99.90
19906;DHT22;10115;50.906;4.438;2023-09-19T07:08:05;14.80;99.90
19906;DHT22;10115;50.906;4.438;2023-09-19T07:10:36;14.90;99.90
19906;DHT22;10115;50.906;4.438;2023-09-19T07:13:03;14.90;99.90
19906;DHT22;10115;50.906;4.438;2023-09-19T07:15:31;14.90;99.90
19906;DHT22;10115;50.906;4.438;2023-09-19T07:17:59;14.90;99.90
19906;DHT22;10115;50.906;4.438;2023-09-19T07:20:26;15.00;99.90
19906;DHT22;10115;50.906;4.438;2023-09-19T07:22:53;15.10;99.90
19906;DHT22;10115;50.906;4.438;2023-09-19T07:25:20;15.10;99.90
19906;DHT22;10115;50.906;4.438;2023-09-19T07:27:46;15.10;99.90
19906;DHT22;10115;50.906;4.438;2023-09-19T07:30:12;15.20;99.90
19906;DHT22;10115;50.906;4.438;2023-09-19T07:32:38;15.20;99.90
19906;DHT22;10115;50.906;4.438;2023-09-19T07:35:05;15.30;99.90
19906;DHT22;10115;50.906;4.438;2023-09-19T07:37:31;15.30;99.90
19906;DHT22;10115;50.906;4.438;2023-09-19T07:40:02;15.40;99.90
19906;DHT22;10115;50.906;4.438;2023-09-19T07:42:31;15.50;99.90
19906;DHT22;10115;50.906;4.438;2023-09-19T07:44:57;15.60;99.90
19906;DHT22;10115;50.906;4.438;2023-09-19T07:47:23;15.60;99.90
19906;DHT22;10115;50.906;4.438;2023-09-19T07:49:48;15.60;99.90
19906;DHT22;10115;50.906;4.438;2023-09-19T07:52:14;15.80;99.90
19906;DHT22;10115;50.906;4.438;2023-09-19T07:54:41;15.70;99.90
19906;DHT22;10115;50.906;4.438;2023-09-19T07:57:07;15.70;99.90
19906;DHT22;10115;50.906;4.438;2023-09-19T07:59:32;15.80;99.90
19906;DHT22;10115;50.906;4.438;2023-09-19T08:01:58;15.90;99.90
19906;DHT22;10115;50.906;4.438;2023-09-19T08:04:24;15.80;99.90
19906;DHT22;10115;50.906;4.438;2023-09-19T08:06:51;15.90;99.90
19906;DHT22;10115;50.906;4.438;2023-09-19T08:09:17;15.90;99.90
19906;DHT22;10115;50.906;4.438;2023-09-19T08:11:47;16.00;99.90
19906;DHT22;10115;50.906;4.438;2023-09-19T08:14:13;16.00;99.90
19906;DHT22;10115;50.906;4.438;2023-09-19T08:16:40;15.90;99.90
19906;DHT22;10115;50.906;4.438;2023-09-19T08:19:05;16.00;99.90
19906;DHT22;10115;50.906;4.438;2023-09-19T08:21:31;16.20;99.90
19906;DHT22;10115;50.906;4.438;2023-09-19T08:23:57;16.30;99.90
19906;DHT22;10115;50.906;4.438;2023-09-19T08:26:23;16.40;99.90
19906;DHT22;10115;50.906;4.438;2023-09-19T08:28:50;16.40;99.90
19906;DHT22;10115;50.906;4.438;2023-09-19T08:31:17;16.40;99.90
19906;DHT22;10115;50.906;4.438;2023-09-19T08:33:43;16.40;99.90
19906;DHT22;10115;50.906;4.438;2023-09-19T08:36:16;16.50;99.90
19906;DHT22;10115;50.906;4.438;2023-09-19T08:38:42;16.50;99.90
19906;DHT22;10115;50.906;4.438;2023-09-19T08:41:08;16.50;99.90
19906;DHT22;10115;50.906;4.438;2023-09-19T08:43:34;16.60;99.90
19906;DHT22;10115;50.906;4.438;2023-09-19T08:46:10;16.50;99.90
19906;DHT22;10115;50.906;4.438;2023-09-19T08:48:42;16.60;99.90
19906;DHT22;10115;50.906;4.438;2023-09-19T08:51:27;16.70;99.90
19906;DHT22;10115;50.906;4.438;2023-09-19T08:56:32;17.00;99.90
19906;DHT22;10115;50.906;4.438;2023-09-19T08:59:05;17.00;99.90
19906;DHT22;10115;50.906;4.438;2023-09-19T09:01:33;17.10;99.90
19906;DHT22;10115;50.906;4.438;2023-09-19T09:04:00;17.20;99.90
19906;DHT22;10115;50.906;4.438;2023-09-19T09:06:26;17.40;99.90
19906;DHT22;10115;50.906;4.438;2023-09-19T09:08:55;17.30;99.90
19906;DHT22;10115;50.906;4.438;2023-09-19T09:11:21;17.10;99.90
19906;DHT22;10115;50.906;4.438;2023-09-19T09:13:50;17.00;99.90
19906;DHT22;10115;50.906;4.438;2023-09-19T09:16:16;17.30;99.90
19906;DHT22;10115;50.906;4.438;2023-09-19T09:18:49;17.40;99.90
19906;DHT22;10115;50.906;4.438;2023-09-19T09:21:30;17.60;99.90
19906;DHT22;10115;50.906;4.438;2023-09-19T09:24:27;17.60;99.90
19906;DHT22;10115;50.906;4.438;2023-09-19T09:26:59;17.60;99.90
19906;DHT22;10115;50.906;4.438;2023-09-19T09:29:44;17.70;99.90
19906;DHT22;10115;50.906;4.438;2023-09-19T09:32:19;17.80;99.90
19906;DHT22;10115;50.906;4.438;2023-09-19T09:34:49;17.80;99.90
19906;DHT22;10115;50.906;4.438;2023-09-19T09:37:16;17.70;99.90
19906;DHT22;10115;50.906;4.438;2023-09-19T09:39:52;17.80;99.90
19906;DHT22;10115;50.906;4.438;2023-09-19T09:42:39;17.70;99.90
19906;DHT22;10115;50.906;4.438;2023-09-19T09:45:21;17.70;99.90
19906;DHT22;10115;50.906;4.438;2023-09-19T09:48:00;17.70;99.90
19906;DHT22;10115;50.906;4.438;2023-09-19T09:50:36;17.60;99.90
19906;DHT22;10115;50.906;4.438;2023-09-19T09:53:35;17.70;99.90
19906;DHT22;10115;50.906;4.438;2023-09-19T09:56:08;18.00;99.90
19906;DHT22;10115;50.906;4.438;2023-09-19T09:58:36;17.90;99.90
19906;DHT22;10115;50.906;4.438;2023-09-19T10:01:04;17.90;99.90
19906;DHT22;10115;50.906;4.438;2023-09-19T10:03:41;17.90;99.90
19906;DHT22;10115;50.906;4.438;2023-09-19T10:06:15;17.70;99.90
19906;DHT22;10115;50.906;4.438;2023-09-19T10:09:03;17.70;99.90
19906;DHT22;10115;50.906;4.438;2023-09-19T10:11:42;17.70;99.90
19906;DHT22;10115;50.906;4.438;2023-09-19T10:14:10;17.80;99.90
19906;DHT22;10115;50.906;4.438;2023-09-19T10:16:46;17.90;99.90
19906;DHT22;10115;50.906;4.438;2023-09-19T10:19:27;17.90;99.90
19906;DHT22;10115;50.906;4.438;2023-09-19T10:21:55;18.10;99.90
19906;DHT22;10115;50.906;4.438;2023-09-19T10:24:22;18.10;99.90
19906;DHT22;10115;50.906;4.438;2023-09-19T10:26:53;18.20;99.90
19906;DHT22;10115;50.906;4.438;2023-09-19T10:29:21;18.20;99.90
19906;DHT22;10115;50.906;4.438;2023-09-19T10:31:47;18.30;99.90
19906;DHT22;10115;50.906;4.438;2023-09-19T10:34:17;18.50;99.90
19906;DHT22;10115;50.906;4.438;2023-09-19T10:36:46;18.60;99.90
19906;DHT22;10115;50.906;4.438;2023-09-19T10:39:16;18.60;99.90
19906;DHT22;10115;50.906;4.438;2023-09-19T10:41:56;18.60;99.90
19906;DHT22;10115;50.906;4.438;2023-09-19T10:44:25;18.70;99.90
19906;DHT22;10115;50.906;4.438;2023-09-19T10:46:52;18.90;99.90
19906;DHT22;10115;50.906;4.438;2023-09-19T10:49:20;18.90;99.90
19906;DHT22;10115;50.906;4.438;2023-09-19T10:51:49;18.90;99.90
19906;DHT22;10115;50.906;4.438;2023-09-19T10:54:18;18.90;99.90
19906;DHT22;10115;50.906;4.438;2023-09-19T10:56:49;18.90;99.90
19906;DHT22;10115;50.906;4.438;2023-09-19T10:59:18;19.00;99.90
19906;DHT22;10115;50.906;4.438;2023-09-19T11:01:51;19.10;99.90
19906;DHT22;10115;50.906;4.438;2023-09-19T11:04:26;18.90;99.90
19906;DHT22;10115;50.906;4.438;2023-09-19T11:07:09;18.90;99.90
19906;DHT22;10115;50.906;4.438;2023-09-19T11:09:55;19.00;99.90
19906;DHT22;10115;50.906;4.438;2023-09-19T11:15:06;19.10;99.90
19906;DHT22;10115;50.906;4.438;2023-09-19T11:17:37;19.20;99.90
19906;DHT22;10115;50.906;4.438;2023-09-19T11:30:33;19.90;99.90
19906;DHT22;10115;50.906;4.438;2023-09-19T11:33:18;19.60;99.90
19906;DHT22;10115;50.906;4.438;2023-09-19T11:36:14;19.50;99.90
19906;DHT22;10115;50.906;4.438;2023-09-19T11:43:48;19.80;99.90
19906;DHT22;10115;50.906;4.438;2023-09-19T11:46:16;19.70;99.90
19906;DHT22;10115;50.906;4.438;2023-09-19T11:48:47;19.70;99.90
19906;DHT22;10115;50.906;4.438;2023-09-19T11:51:19;19.80;99.90
19906;DHT22;10115;50.906;4.438;2023-09-19T11:53:46;19.70;99.90
19906;DHT22;10115;50.906;4.438;2023-09-19T11:56:38;19.70;99.90
19906;DHT22;10115;50.906;4.438;2023-09-19T11:59:06;19.90;99.90
19906;DHT22;10115;50.906;4.438;2023-09-19T12:01:34;19.80;99.90
19906;DHT22;10115;50.906;4.438;2023-09-19T12:04:02;19.70;99.90
19906;DHT22;10115;50.906;4.438;2023-09-19T12:06:30;19.50;99.90
19906;DHT22;10115;50.906;4.438;2023-09-19T12:08:58;19.70;99.90
19906;DHT22;10115;50.906;4.438;2023-09-19T12:11:28;19.80;99.90
19906;DHT22;10115;50.906;4.438;2023-09-19T12:13:55;19.60;99.90
19906;DHT22;10115;50.906;4.438;2023-09-19T12:16:26;19.50;99.90
19906;DHT22;10115;50.906;4.438;2023-09-19T12:18:55;19.50;99.90
19906;DHT22;10115;50.906;4.438;2023-09-19T12:21:32;19.50;99.90
19906;DHT22;10115;50.906;4.438;2023-09-19T12:24:27;19.70;99.90
19906;DHT22;10115;50.906;4.438;2023-09-19T12:27:03;20.10;99.90
19906;DHT22;10115;50.906;4.438;2023-09-19T12:29:30;20.10;99.90
19906;DHT22;10115;50.906;4.438;2023-09-19T12:31:57;20.00;99.90
19906;DHT22;10115;50.906;4.438;2023-09-19T12:34:25;20.20;99.90
19906;DHT22;10115;50.906;4.438;2023-09-19T12:37:17;20.30;99.90
19906;DHT22;10115;50.906;4.438;2023-09-19T12:39:49;20.20;99.90
19906;DHT22;10115;50.906;4.438;2023-09-19T12:42:17;20.10;99.90
19906;DHT22;10115;50.906;4.438;2023-09-19T12:44:48;20.00;99.90
19906;DHT22;10115;50.906;4.438;2023-09-19T12:47:18;20.00;99.90
19906;DHT22;10115;50.906;4.438;2023-09-19T12:52:39;19.90;99.90
19906;DHT22;10115;50.906;4.438;2023-09-19T12:55:05;19.90;99.90
19906;DHT22;10115;50.906;4.438;2023-09-19T12:57:36;19.90;99.90
19906;DHT22;10115;50.906;4.438;2023-09-19T13:00:03;19.90;99.90
19906;DHT22;10115;50.906;4.438;2023-09-19T13:02:31;20.10;99.90
19906;DHT22;10115;50.906;4.438;2023-09-19T13:04:58;20.10;99.90
19906;DHT22;10115;50.906;4.438;2023-09-19T13:07:45;20.20;99.90
19906;DHT22;10115;50.906;4.438;2023-09-19T13:10:13;20.30;99.90
19906;DHT22;10115;50.906;4.438;2023-09-19T13:12:43;20.30;99.90
19906;DHT22;10115;50.906;4.438;2023-09-19T13:15:14;20.30;99.90
19906;DHT22;10115;50.906;4.438;2023-09-19T13:17:49;20.30;99.90
19906;DHT22;10115;50.906;4.438;2023-09-19T13:20:22;20.40;99.90
19906;DHT22;10115;50.906;4.438;2023-09-19T13:22:55;20.40;99.90
19906;DHT22;10115;50.906;4.438;2023-09-19T13:25:26;20.30;99.90
19906;DHT22;10115;50.906;4.438;2023-09-19T13:27:56;20.10;99.90
19906;DHT22;10115;50.906;4.438;2023-09-19T13:30:23;20.00;99.90
19906;DHT22;10115;50.906;4.438;2023-09-19T13:32:51;20.00;99.90
19906;DHT22;10115;50.906;4.438;2023-09-19T13:35:18;20.20;99.90
19906;DHT22;10115;50.906;4.438;2023-09-19T13:37:44;20.50;99.90
19906;DHT22;10115;50.906;4.438;2023-09-19T13:40:14;20.30;99.90
19906;DHT22;10115;50.906;4.438;2023-09-19T13:42:41;20.60;99.90
19906;DHT22;10115;50.906;4.438;2023-09-19T13:45:07;20.40;99.90
19906;DHT22;10115;50.906;4.438;2023-09-19T13:47:37;20.30;99.90
19906;DHT22;10115;50.906;4.438;2023-09-19T13:50:04;20.20;99.90
19906;DHT22;10115;50.906;4.438;2023-09-19T13:52:30;20.40;99.90
19906;DHT22;10115;50.906;4.438;2023-09-19T13:54:57;20.20;99.90
19906;DHT22;10115;50.906;4.438;2023-09-19T13:57:24;20.10;99.90
19906;DHT22;10115;50.906;4.438;2023-09-19T13:59:49;20.30;99.90
19906;DHT22;10115;50.906;4.438;2023-09-19T14:02:15;20.40;99.90
19906;DHT22;10115;50.906;4.438;2023-09-19T14:04:44;20.60;99.90
19906;DHT22;10115;50.906;4.438;2023-09-19T14:07:09;20.50;99.90
19906;DHT22;10115;50.906;4.438;2023-09-19T14:09:36;20.40;99.90
19906;DHT22;10115;50.906;4.438;2023-09-19T14:12:02;20.30;99.90
19906;DHT22;10115;50.906;4.438;2023-09-19T14:14:28;20.30;99.90
19906;DHT22;10115;50.906;4.438;2023-09-19T14:16:54;20.10;99.90
19906;DHT22;10115;50.906;4.438;2023-09-19T14:19:20;20.00;99.90
19906;DHT22;10115;50.906;4.438;2023-09-19T14:21:46;19.90;99.90
19906;DHT22;10115;50.906;4.438;2023-09-19T14:24:17;20.10;99.90
19906;DHT22;10115;50.906;4.438;2023-09-19T14:26:43;20.40;99.90
19906;DHT22;10115;50.906;4.438;2023-09-19T14:29:09;20.70;99.90
19906;DHT22;10115;50.906;4.438;2023-09-19T14:31:37;20.70;99.90
19906;DHT22;10115;50.906;4.438;2023-09-19T14:34:05;20.80;99.90
19906;DHT22;10115;50.906;4.438;2023-09-19T14:36:31;21.10;99.90
19906;DHT22;10115;50.906;4.438;2023-09-19T14:38:57;21.00;99.90
19906;DHT22;10115;50.906;4.438;2023-09-19T14:41:23;21.10;99.90
19906;DHT22;10115;50.906;4.438;2023-09-19T14:43:51;21.30;99.90
19906;DHT22;10115;50.906;4.438;2023-09-19T14:46:17;22.20;99.90
19906;DHT22;10115;50.906;4.438;2023-09-19T14:48:44;21.50;99.90
19906;DHT22;10115;50.906;4.438;2023-09-19T14:51:13;21.30;99.90
19906;DHT22;10115;50.906;4.438;2023-09-19T14:53:42;20.60;99.90
19906;DHT22;10115;50.906;4.438;2023-09-19T14:56:09;20.30;99.90
19906;DHT22;10115;50.906;4.438;2023-09-19T14:58:35;20.10;99.90
19906;DHT22;10115;50.906;4.438;2023-09-19T15:01:11;20.10;99.90
19906;DHT22;10115;50.906;4.438;2023-09-19T15:03:38;20.00;99.90
19906;DHT22;10115;50.906;4.438;2023-09-19T15:06:06;19.80;99.90
19906;DHT22;10115;50.906;4.438;2023-09-19T15:08:34;19.70;99.90
19906;DHT22;10115;50.906;4.438;2023-09-19T15:11:04;19.70;99.90
19906;DHT22;10115;50.906;4.438;2023-09-19T15:13:31;19.80;99.90
19906;DHT22;10115;50.906;4.438;2023-09-19T15:16:05;19.80;99.90
19906;DHT22;10115;50.906;4.438;2023-09-19T15:18:34;20.00;99.90
19906;DHT22;10115;50.906;4.438;2023-09-19T15:21:12;20.00;99.90
19906;DHT22;10115;50.906;4.438;2023-09-19T15:23:40;20.10;99.90
19906;DHT22;10115;50.906;4.438;2023-09-19T15:26:07;20.10;99.90
19906;DHT22;10115;50.906;4.438;2023-09-19T15:28:39;20.00;99.90
19906;DHT22;10115;50.906;4.438;2023-09-19T15:31:07;19.80;99.90
19906;DHT22;10115;50.906;4.438;2023-09-19T15:33:33;19.70;99.90
19906;DHT22;10115;50.906;4.438;2023-09-19T15:36:07;19.70;99.90
19906;DHT22;10115;50.906;4.438;2023-09-19T15:41:23;19.60;99.90
19906;DHT22;10115;50.906;4.438;2023-09-19T15:43:49;19.50;99.90
19906;DHT22;10115;50.906;4.438;2023-09-19T15:46:15;19.50;99.90
19906;DHT22;10115;50.906;4.438;2023-09-19T15:48:41;19.40;99.90
19906;DHT22;10115;50.906;4.438;2023-09-19T15:51:08;19.50;99.90
19906;DHT22;10115;50.906;4.438;2023-09-19T15:53:45;19.50;99.90
19906;DHT22;10115;50.906;4.438;2023-09-19T15:56:12;19.50;99.90
19906;DHT22;10115;50.906;4.438;2023-09-19T15:58:44;19.40;99.90
19906;DHT22;10115;50.906;4.438;2023-09-19T16:01:10;19.40;99.90
19906;DHT22;10115;50.906;4.438;2023-09-19T16:03:37;19.40;99.90
19906;DHT22;10115;50.906;4.438;2023-09-19T16:06:11;19.40;99.90
19906;DHT22;10115;50.906;4.438;2023-09-19T16:08:47;19.40;99.90
19906;DHT22;10115;50.906;4.438;2023-09-19T16:11:13;19.40;99.90
19906;DHT22;10115;50.906;4.438;2023-09-19T16:13:40;19.40;99.90
19906;DHT22;10115;50.906;4.438;2023-09-19T16:16:09;19.40;99.90
19906;DHT22;10115;50.906;4.438;2023-09-19T16:18:40;19.40;99.90
19906;DHT22;10115;50.906;4.438;2023-09-19T16:21:10;19.40;99.90
19906;DHT22;10115;50.906;4.438;2023-09-19T16:23:36;19.40;99.90
19906;DHT22;10115;50.906;4.438;2023-09-19T16:26:07;19.40;99.90